Minneapolis (MSP/KMSP)

Information

Location
Minneapolis, MN
Local Time
20:02 / 8:02 pm
GMT Time
01:02 / 1:02 am
Gates
B10,C27
No FAA reported delays
METAR KMSP 240053Z 03005KT 10SM FEW250 22/09 A3002 RMK AO2 SLP164 T02220094
TAF KMSP 232334Z 2400/2506 32005KT P6SM SCT060 FM240300 VRB04KT P6SM FEW060 OVC120 FM240600 VRB04KT P6SM -SHRA OVC060 FM241200 12006KT P6SM BKN070